createdAt,value
2022-12-04T00:00:24.907Z,6.81
2022-12-04T00:03:53.125Z,6.93
2022-12-04T00:06:59.191Z,6.89
2022-12-04T00:10:05.896Z,6.77
2022-12-04T00:13:11.875Z,6.70
2022-12-04T00:16:18.973Z,6.81
2022-12-04T00:19:24.607Z,6.95
2022-12-04T00:22:29.908Z,6.88
2022-12-04T00:25:40.819Z,6.75
2022-12-04T00:28:46.603Z,6.63
2022-12-04T00:31:52.050Z,6.76
2022-12-04T00:34:57.631Z,6.70
2022-12-04T00:38:03.203Z,6.73
2022-12-04T00:41:09.011Z,6.91
2022-12-04T00:44:14.435Z,6.89
2022-12-04T00:47:19.928Z,7.08
2022-12-04T00:50:25.260Z,7.13
2022-12-04T00:53:30.897Z,7.13
2022-12-04T00:56:36.276Z,7.16
2022-12-04T00:59:41.600Z,7.18
2022-12-04T01:02:47.138Z,7.00
2022-12-04T01:05:52.640Z,7.02
2022-12-04T01:08:58.672Z,7.27
2022-12-04T01:12:04.124Z,7.21
2022-12-04T01:15:10.416Z,7.30
2022-12-04T01:18:15.984Z,7.48
2022-12-04T01:21:21.827Z,7.58
2022-12-04T01:24:27.097Z,7.53
2022-12-04T01:27:32.409Z,7.48
2022-12-04T01:30:37.816Z,7.47
2022-12-04T01:33:44.488Z,7.48
2022-12-04T01:36:49.738Z,7.60
2022-12-04T01:39:55.381Z,7.43
2022-12-04T01:43:02.591Z,7.42
2022-12-04T01:46:09.173Z,7.47
2022-12-04T01:49:18.747Z,7.68
2022-12-04T01:52:25.953Z,7.56
2022-12-04T01:55:32.549Z,7.65
2022-12-04T01:58:41.191Z,7.45
2022-12-04T02:01:54.386Z,7.47
2022-12-04T02:05:01.030Z,7.54
2022-12-04T02:08:06.591Z,7.49
2022-12-04T02:11:17.621Z,7.56
2022-12-04T02:14:27.255Z,7.69
2022-12-04T02:17:39.951Z,7.79
2022-12-04T02:20:50.275Z,7.74
2022-12-04T02:24:04.875Z,7.70
2022-12-04T02:31:08.561Z,7.56
2022-12-04T02:34:15.930Z,7.69
2022-12-04T02:37:25.477Z,7.66
2022-12-04T02:40:32.723Z,7.50
2022-12-04T02:43:40.532Z,7.41
2022-12-04T02:46:48.298Z,7.42
2022-12-04T02:49:56.986Z,7.37
2022-12-04T02:53:05.798Z,7.30
2022-12-04T02:56:13.097Z,7.43
2022-12-04T02:59:21.425Z,7.55
2022-12-04T03:02:30.519Z,7.53
2022-12-04T03:05:40.102Z,7.75
2022-12-04T03:08:47.672Z,7.74
2022-12-04T03:11:54.845Z,7.86
2022-12-04T03:15:03.160Z,7.66
2022-12-04T03:18:13.188Z,7.80
2022-12-04T03:21:21.182Z,7.89
2022-12-04T03:24:28.482Z,8.00
2022-12-04T03:27:36.834Z,7.85
2022-12-04T03:30:45.493Z,7.62
2022-12-04T03:33:52.350Z,7.57
2022-12-04T03:37:00.560Z,7.71
2022-12-04T03:40:09.140Z,7.79
2022-12-04T03:43:16.227Z,7.86
2022-12-04T03:46:25.757Z,7.83
2022-12-04T03:49:35.461Z,7.96
2022-12-04T03:52:44.947Z,8.11
2022-12-04T03:55:53.138Z,8.18
2022-12-04T03:59:00.455Z,8.26
2022-12-04T04:02:09.496Z,8.33
2022-12-04T04:05:15.947Z,8.25
2022-12-04T04:08:33.930Z,8.24
2022-12-04T04:11:41.781Z,8.38
2022-12-04T04:15:09.780Z,7.97
2022-12-04T04:18:33.026Z,6.46
2022-12-04T04:21:57.392Z,6.67
2022-12-04T04:25:06.148Z,7.37
2022-12-04T04:28:24.992Z,7.70
2022-12-04T04:31:35.451Z,7.76
2022-12-04T04:34:43.631Z,7.96
2022-12-04T04:37:54.913Z,8.07
2022-12-04T04:41:04.210Z,8.09
2022-12-04T04:44:13.542Z,8.08
2022-12-04T04:47:22.119Z,8.14
2022-12-04T04:50:28.865Z,8.29
2022-12-04T04:53:36.762Z,8.19
2022-12-04T04:56:42.983Z,8.26
2022-12-04T04:59:48.507Z,8.33
2022-12-04T05:02:53.824Z,8.42
2022-12-04T05:05:59.290Z,8.56
2022-12-04T05:09:05.139Z,8.59
2022-12-04T05:12:10.541Z,8.58
2022-12-04T05:15:16.355Z,8.49
2022-12-04T05:18:22.191Z,8.44
2022-12-04T05:21:27.602Z,8.43
2022-12-04T05:24:33.045Z,8.54
2022-12-04T05:27:38.376Z,8.53
2022-12-04T05:30:43.759Z,8.48
2022-12-04T05:33:49.293Z,8.36
2022-12-04T05:36:54.777Z,8.35
2022-12-04T05:40:00.251Z,8.43
2022-12-04T05:43:05.646Z,8.34
2022-12-04T05:46:11.637Z,8.42
2022-12-04T05:49:17.013Z,8.58
2022-12-04T05:52:22.548Z,8.63
2022-12-04T05:55:27.927Z,8.67
2022-12-04T05:58:35.278Z,8.73
2022-12-04T06:01:40.816Z,8.65
2022-12-04T06:04:46.361Z,7.24
2022-12-04T06:07:51.871Z,6.26
2022-12-04T06:10:58.694Z,6.80
2022-12-04T06:14:05.084Z,7.35
2022-12-04T06:17:10.511Z,7.75
2022-12-04T06:20:16.171Z,7.96
2022-12-04T06:23:21.669Z,8.14
2022-12-04T06:26:27.298Z,8.20
2022-12-04T06:29:32.956Z,8.33
2022-12-04T06:32:38.324Z,8.36
2022-12-04T06:35:43.709Z,8.43
2022-12-04T06:38:49.173Z,8.49
2022-12-04T06:41:54.681Z,8.44
2022-12-04T06:45:00.291Z,8.39
2022-12-04T06:48:05.917Z,8.50
2022-12-04T06:51:12.351Z,8.32
2022-12-04T06:54:20.763Z,8.42
2022-12-04T06:57:26.076Z,8.50
2022-12-04T07:00:31.370Z,8.60
2022-12-04T07:03:36.816Z,8.75
2022-12-04T07:06:42.749Z,8.81
2022-12-04T07:09:48.167Z,8.81
2022-12-04T07:12:53.593Z,8.63
2022-12-04T07:16:00.698Z,8.44
2022-12-04T07:19:06.083Z,8.35
2022-12-04T07:22:11.387Z,8.43
2022-12-04T07:25:16.763Z,8.55
2022-12-04T07:28:22.168Z,8.70
2022-12-04T07:31:28.285Z,8.80
2022-12-04T07:34:35.769Z,8.72
2022-12-04T07:37:42.563Z,8.54
2022-12-04T07:40:48.036Z,8.56
2022-12-04T07:43:54.640Z,8.52
2022-12-04T07:47:00.165Z,8.80
2022-12-04T07:50:06.154Z,8.88
2022-12-04T07:53:11.846Z,8.99
2022-12-04T07:56:17.678Z,9.07
2022-12-04T07:59:23.181Z,9.13
2022-12-04T08:02:28.497Z,9.09
2022-12-04T08:05:34.230Z,9.20
2022-12-04T08:08:39.746Z,9.21
2022-12-04T08:11:45.056Z,9.22
2022-12-04T08:14:51.734Z,9.07
2022-12-04T08:17:57.060Z,8.93
2022-12-04T08:21:05.584Z,8.87
2022-12-04T08:24:11.118Z,8.76
2022-12-04T08:27:16.722Z,8.75
2022-12-04T08:30:22.221Z,8.95
2022-12-04T08:33:27.471Z,9.01
2022-12-04T08:36:33.309Z,9.04
2022-12-04T08:39:38.785Z,8.98
2022-12-04T08:42:44.259Z,9.08
2022-12-04T08:45:57.417Z,9.05
2022-12-04T08:49:02.844Z,9.18
2022-12-04T08:52:08.256Z,9.38
2022-12-04T08:55:13.861Z,9.33
2022-12-04T08:58:19.915Z,9.26
2022-12-04T09:01:25.784Z,9.29
2022-12-04T09:04:31.536Z,9.31
2022-12-04T09:07:37.029Z,9.39
2022-12-04T09:10:42.825Z,9.31
2022-12-04T09:13:48.358Z,9.20
2022-12-04T09:16:54.144Z,9.29
2022-12-04T09:20:01.487Z,9.40
2022-12-04T09:23:07.348Z,9.43
2022-12-04T09:26:20.146Z,9.50
2022-12-04T09:29:26.184Z,9.50
2022-12-04T09:32:31.637Z,9.55
2022-12-04T09:35:37.223Z,9.56
2022-12-04T09:38:42.694Z,9.73
2022-12-04T09:41:56.507Z,9.66
2022-12-04T09:45:04.756Z,9.61
2022-12-04T09:48:12.050Z,9.67
2022-12-04T09:51:20.401Z,9.79
2022-12-04T09:54:28.096Z,9.98
2022-12-04T09:57:36.869Z,9.95
2022-12-04T10:00:43.467Z,9.75
2022-12-04T10:03:48.988Z,9.72
2022-12-04T10:07:01.579Z,9.68
2022-12-04T10:10:08.510Z,9.68
2022-12-04T10:13:22.353Z,9.84
2022-12-04T10:16:30.028Z,9.09
2022-12-04T10:19:38.992Z,8.02
2022-12-04T10:22:47.989Z,8.39
2022-12-04T10:25:54.550Z,8.91
2022-12-04T10:29:02.663Z,9.16
2022-12-04T10:32:16.205Z,9.33
2022-12-04T10:35:22.967Z,9.40
2022-12-04T10:38:33.532Z,9.57
2022-12-04T10:41:41.790Z,9.68
2022-12-04T10:44:47.051Z,9.89
2022-12-04T10:47:53.677Z,10.04
2022-12-04T10:50:59.198Z,10.02
2022-12-04T10:54:12.558Z,9.55
2022-12-04T10:57:18.033Z,8.17
2022-12-04T11:00:27.178Z,7.64
2022-12-04T11:03:33.010Z,8.32
2022-12-04T11:06:39.892Z,8.97
2022-12-04T11:09:45.711Z,9.35
2022-12-04T11:12:56.396Z,9.32
2022-12-04T11:16:02.362Z,9.07
2022-12-04T11:19:21.258Z,9.04
2022-12-04T11:22:26.626Z,9.27
2022-12-04T11:25:36.671Z,9.43
2022-12-04T11:28:45.940Z,9.67
2022-12-04T11:31:53.117Z,9.91
2022-12-04T11:35:00.816Z,9.64
2022-12-04T11:38:08.880Z,8.19
2022-12-04T11:41:25.083Z,7.98
2022-12-04T11:44:33.066Z,8.61
2022-12-04T11:47:38.514Z,8.94
2022-12-04T11:50:48.571Z,9.08
2022-12-04T11:53:58.564Z,9.30
2022-12-04T11:57:09.026Z,9.31
2022-12-04T12:00:16.212Z,9.49
2022-12-04T12:03:26.274Z,9.74
2022-12-04T12:06:35.967Z,10.01
2022-12-04T12:09:45.591Z,9.58
2022-12-04T12:12:57.215Z,8.24
2022-12-04T12:16:06.424Z,7.55
2022-12-04T12:19:20.214Z,8.39
2022-12-04T12:22:34.391Z,8.86
2022-12-04T12:25:51.707Z,9.42
2022-12-04T12:29:06.383Z,9.84
2022-12-04T12:32:18.210Z,9.98
2022-12-04T12:35:27.665Z,10.12
2022-12-04T12:38:36.497Z,9.68
2022-12-04T12:41:44.967Z,8.16
2022-12-04T12:44:54.726Z,8.17
2022-12-04T12:48:02.533Z,8.65
2022-12-04T12:51:29.268Z,8.95
2022-12-04T12:54:41.117Z,9.17
2022-12-04T12:57:47.954Z,9.34
2022-12-04T13:00:57.172Z,9.47
2022-12-04T13:04:04.580Z,9.66
2022-12-04T13:07:23.817Z,9.61
2022-12-04T13:10:31.962Z,9.50
2022-12-04T13:13:40.469Z,9.42
2022-12-04T13:16:46.915Z,9.51
2022-12-04T13:19:55.310Z,9.51
2022-12-04T13:23:12.027Z,9.36
2022-12-04T13:26:22.419Z,9.38
2022-12-04T13:29:36.414Z,9.29
2022-12-04T13:33:04.162Z,9.44
2022-12-04T13:36:27.223Z,9.53
2022-12-04T13:39:44.575Z,9.56
2022-12-04T13:42:49.932Z,9.58
2022-12-04T13:45:56.693Z,9.75
2022-12-04T13:49:25.180Z,9.11
2022-12-04T13:52:40.914Z,7.82
2022-12-04T13:55:56.249Z,8.15
2022-12-04T13:59:03.153Z,8.76
2022-12-04T14:02:22.588Z,8.84
2022-12-04T14:05:30.099Z,8.98
2022-12-04T14:08:40.223Z,9.17
2022-12-04T14:11:47.540Z,9.26
2022-12-04T14:14:55.564Z,9.46
2022-12-04T14:18:02.530Z,9.56
2022-12-04T14:21:07.966Z,8.64
2022-12-04T14:24:18.577Z,7.54
2022-12-04T14:27:35.342Z,7.82
2022-12-04T14:30:41.621Z,8.31
2022-12-04T14:33:49.500Z,8.53
2022-12-04T14:36:56.302Z,8.38
2022-12-04T14:40:02.822Z,8.45
2022-12-04T14:43:08.791Z,8.63
2022-12-04T14:46:20.280Z,8.83
2022-12-04T14:49:34.394Z,8.97
2022-12-04T14:52:41.904Z,9.05
2022-12-04T14:55:57.802Z,8.98
2022-12-04T14:59:07.175Z,8.73
2022-12-04T15:02:17.354Z,8.98
2022-12-04T15:05:23.797Z,8.96
2022-12-04T15:08:29.283Z,9.12
2022-12-04T15:11:52.304Z,9.23
2022-12-04T15:14:59.956Z,9.34
2022-12-04T15:18:12.169Z,9.21
2022-12-04T15:21:17.515Z,8.97
2022-12-04T15:24:24.413Z,8.91
2022-12-04T15:27:32.885Z,9.10
2022-12-04T15:30:40.478Z,9.07
2022-12-04T15:33:47.323Z,9.00
2022-12-04T15:36:56.294Z,8.94
2022-12-04T15:40:06.075Z,8.80
2022-12-04T15:43:17.288Z,8.78
2022-12-04T15:46:25.117Z,8.74
2022-12-04T15:49:31.291Z,8.78
2022-12-04T15:52:37.156Z,8.69
2022-12-04T15:55:49.005Z,8.83
2022-12-04T15:58:57.146Z,8.88
2022-12-04T16:02:21.130Z,8.80
2022-12-04T16:05:34.954Z,8.60
2022-12-04T16:08:41.340Z,8.58
2022-12-04T16:11:46.880Z,8.61
2022-12-04T16:14:54.503Z,8.29
2022-12-04T16:18:00.035Z,8.25
2022-12-04T16:21:05.379Z,8.34
2022-12-04T16:24:13.267Z,8.41
2022-12-04T16:27:20.445Z,8.26
2022-12-04T16:30:26.171Z,8.14
2022-12-04T16:33:31.460Z,8.04
2022-12-04T16:36:37.222Z,7.89
2022-12-04T16:39:42.720Z,7.92
2022-12-04T16:42:48.173Z,8.09
2022-12-04T16:45:54.808Z,8.44
2022-12-04T16:49:05.779Z,8.33
2022-12-04T16:52:12.980Z,8.25
2022-12-04T16:55:20.364Z,8.27
2022-12-04T16:58:25.907Z,8.31
2022-12-04T17:01:34.878Z,8.40
2022-12-04T17:04:40.380Z,8.60
2022-12-04T17:07:45.907Z,8.71
2022-12-04T17:10:51.302Z,8.92
2022-12-04T17:13:56.769Z,9.06
2022-12-04T17:17:02.058Z,9.09
2022-12-04T17:20:08.774Z,9.09
2022-12-04T17:23:14.284Z,9.11
2022-12-04T17:26:20.191Z,8.85
2022-12-04T17:29:25.591Z,8.76
2022-12-04T17:32:33.261Z,8.55
2022-12-04T17:35:41.475Z,8.62
2022-12-04T17:38:46.707Z,8.63
2022-12-04T17:41:52.073Z,8.54
2022-12-04T17:44:57.787Z,8.55
2022-12-04T17:48:03.584Z,8.46
2022-12-04T17:51:09.751Z,8.54
2022-12-04T17:54:15.200Z,8.70
2022-12-04T17:57:21.535Z,8.98
2022-12-04T18:00:27.037Z,9.01
2022-12-04T18:03:32.567Z,8.98
2022-12-04T18:06:38.841Z,8.86
2022-12-04T18:09:44.211Z,8.74
2022-12-04T18:12:49.583Z,8.74
2022-12-04T18:15:54.843Z,8.48
2022-12-04T18:19:01.791Z,8.32
2022-12-04T18:22:07.460Z,8.42
2022-12-04T18:25:12.751Z,8.52
2022-12-04T18:28:18.163Z,8.55
2022-12-04T18:31:23.577Z,8.65
2022-12-04T18:34:29.041Z,8.53
2022-12-04T18:37:34.383Z,8.39
2022-12-04T18:40:39.719Z,8.56
2022-12-04T18:43:45.683Z,8.33
2022-12-04T18:46:51.102Z,8.46
2022-12-04T18:49:56.776Z,8.47
2022-12-04T18:53:02.893Z,8.46
2022-12-04T18:56:08.387Z,8.47
2022-12-04T18:59:15.031Z,8.19
2022-12-04T19:02:20.644Z,8.21
2022-12-04T19:05:26.330Z,8.05
2022-12-04T19:08:34.284Z,8.11
2022-12-04T19:11:42.822Z,8.17
2022-12-04T19:14:48.236Z,8.18
2022-12-04T19:17:54.102Z,8.06
2022-12-04T19:20:59.463Z,8.06
2022-12-04T19:24:04.822Z,8.17
2022-12-04T19:27:11.692Z,8.26
2022-12-04T19:30:17.261Z,8.26
2022-12-04T19:33:22.762Z,8.13
2022-12-04T19:36:29.019Z,7.92
2022-12-04T19:39:34.309Z,7.97
2022-12-04T19:42:39.623Z,7.94
2022-12-04T19:45:49.946Z,7.73
2022-12-04T19:48:56.941Z,7.84
2022-12-04T19:52:02.343Z,8.03
2022-12-04T19:55:08.974Z,8.13
2022-12-04T19:58:14.443Z,8.17
2022-12-04T20:01:20.843Z,8.18
2022-12-04T20:04:26.661Z,8.19
2022-12-04T20:07:32.071Z,8.09
2022-12-04T20:10:37.826Z,7.97
2022-12-04T20:13:43.615Z,8.13
2022-12-04T20:16:49.045Z,8.19
2022-12-04T20:19:54.780Z,8.00
2022-12-04T20:23:00.423Z,7.85
2022-12-04T20:26:06.642Z,7.84
2022-12-04T20:29:14.000Z,7.84
2022-12-04T20:32:19.202Z,7.87
2022-12-04T20:35:24.817Z,8.02
2022-12-04T20:38:30.288Z,8.15
2022-12-04T20:41:36.207Z,8.07
2022-12-04T20:44:41.533Z,7.70
2022-12-04T20:47:46.887Z,7.67
2022-12-04T20:50:52.328Z,7.48
2022-12-04T20:53:59.198Z,7.55
2022-12-04T20:57:04.763Z,7.73
2022-12-04T21:00:11.226Z,7.65
2022-12-04T21:03:17.063Z,7.61
2022-12-04T21:06:23.370Z,7.74
2022-12-04T21:09:28.968Z,7.75
2022-12-04T21:12:52.572Z,7.97
2022-12-04T21:16:05.540Z,7.79
2022-12-04T21:19:11.971Z,7.75
2022-12-04T21:22:18.266Z,7.50
2022-12-04T21:25:25.467Z,7.45
2022-12-04T21:28:31.336Z,7.51
2022-12-04T21:31:37.444Z,7.69
2022-12-04T21:34:42.997Z,7.80
2022-12-04T21:37:48.361Z,7.80
2022-12-04T21:40:53.563Z,7.70
2022-12-04T21:43:58.983Z,7.83
2022-12-04T21:47:04.454Z,7.89
2022-12-04T21:50:10.375Z,7.99
2022-12-04T21:53:15.726Z,8.01
2022-12-04T21:56:21.451Z,7.85
2022-12-04T21:59:27.014Z,7.65
2022-12-04T22:02:32.679Z,7.68
2022-12-04T22:05:38.282Z,7.64
2022-12-04T22:08:43.780Z,7.58
2022-12-04T22:11:49.095Z,7.76
2022-12-04T22:14:54.462Z,7.63
2022-12-04T22:17:59.739Z,7.33
2022-12-04T22:21:06.709Z,7.33
2022-12-04T22:24:12.064Z,7.62
2022-12-04T22:27:17.548Z,7.71
2022-12-04T22:30:22.962Z,7.48
2022-12-04T22:33:28.268Z,7.30
2022-12-04T22:36:33.938Z,7.44
2022-12-04T22:39:39.176Z,7.58
2022-12-04T22:42:44.519Z,7.59
2022-12-04T22:45:49.890Z,7.62
2022-12-04T22:48:55.319Z,7.67
2022-12-04T22:52:00.790Z,7.54
2022-12-04T22:55:06.351Z,7.31
2022-12-04T22:58:11.788Z,7.33
2022-12-04T23:01:18.307Z,7.52
2022-12-04T23:04:23.776Z,7.47
2022-12-04T23:07:29.299Z,6.99
2022-12-04T23:10:37.121Z,7.11
2022-12-04T23:13:42.747Z,7.12
2022-12-04T23:16:48.320Z,7.14
2022-12-04T23:19:53.853Z,7.10
2022-12-04T23:22:59.779Z,7.06
2022-12-04T23:26:05.501Z,7.13
2022-12-04T23:29:29.531Z,7.36
2022-12-04T23:32:35.457Z,7.26
2022-12-04T23:35:40.624Z,7.14
2022-12-04T23:38:46.140Z,7.25
2022-12-04T23:41:51.619Z,7.37
2022-12-04T23:44:57.002Z,7.42
2022-12-04T23:48:02.495Z,7.42
2022-12-04T23:51:08.353Z,7.29
2022-12-04T23:54:13.652Z,7.35
2022-12-04T23:57:18.950Z,7.51
